Terminal Aerodrome Forecast
Issued by NWS

Home | Current Version | Previous Version | Text Only | Print | Product List | Glossary Off
Versions: 1 2 3 4 5 6 7 8 9 10 11 12 13 14 15 16 17 18 19 20 21

000
FTUS43 KLSX 291400 AAA
TAFSUS
TAF AMD
KSUS 291405Z 2914/3012 00000KT 3SM BR BKN003
      TEMPO 2914/2915 1/4SM FZFG VV001
     FM291500 04005KT P6SM FEW250
     FM300000 02005KT P6SM SKC
     FM300600 36006KT P6SM SCT030 BKN100=

USA.gov is the U.S. government's official web portal to all federal, state and local government web resources and services.